createdAt,value
2022-10-18T00:00:20.482Z,4.90
2022-10-18T00:02:47.764Z,4.73
2022-10-18T00:05:15.112Z,4.77
2022-10-18T00:07:42.614Z,8.33
2022-10-18T00:10:10.438Z,4.50
2022-10-18T00:12:38.336Z,7.33
2022-10-18T00:15:06.854Z,4.60
2022-10-18T00:17:38.181Z,5.97
2022-10-18T00:20:06.600Z,7.07
2022-10-18T00:22:35.715Z,4.13
2022-10-18T00:25:03.046Z,6.03
2022-10-18T00:27:30.878Z,4.67
2022-10-18T00:29:58.389Z,5.07
2022-10-18T00:32:25.656Z,5.07
2022-10-18T00:34:53.057Z,7.87
2022-10-18T00:37:20.299Z,4.13
2022-10-18T00:39:47.611Z,7.20
2022-10-18T00:42:19.699Z,8.10
2022-10-18T00:44:46.910Z,6.83
2022-10-18T00:47:16.397Z,3.13
2022-10-18T00:49:45.841Z,5.50
2022-10-18T00:52:22.408Z,4.40
2022-10-18T00:54:50.574Z,4.43
2022-10-18T00:57:18.010Z,4.13
2022-10-18T00:59:46.694Z,3.10
2022-10-18T01:02:16.036Z,4.57
2022-10-18T01:04:43.746Z,4.27
2022-10-18T01:07:17.175Z,6.23
2022-10-18T01:09:53.728Z,5.50
2022-10-18T01:12:24.085Z,8.30
2022-10-18T01:15:03.607Z,6.90
2022-10-18T01:17:37.456Z,4.90
2022-10-18T01:20:23.438Z,4.40
2022-10-18T01:23:01.158Z,5.10
2022-10-18T01:25:41.333Z,6.07
2022-10-18T01:28:26.954Z,4.10
2022-10-18T01:30:54.236Z,6.70
2022-10-18T01:33:28.085Z,3.97
2022-10-18T01:36:00.897Z,6.20
2022-10-18T01:38:30.722Z,13.70
2022-10-18T01:40:58.966Z,29.13
2022-10-18T01:43:27.341Z,14.63
2022-10-18T01:45:55.865Z,15.70
2022-10-18T01:48:23.815Z,9.60
2022-10-18T01:50:51.111Z,3.97
2022-10-18T01:53:25.851Z,4.18
2022-10-18T01:56:06.433Z,5.70
2022-10-18T01:58:45.880Z,8.47
2022-10-18T02:01:20.152Z,6.03
2022-10-18T02:03:48.657Z,9.50
2022-10-18T02:06:29.279Z,4.70
2022-10-18T02:09:00.087Z,3.40
2022-10-18T02:11:28.764Z,3.00
2022-10-18T02:13:58.563Z,3.97
2022-10-18T02:16:46.052Z,7.97
2022-10-18T02:21:53.251Z,2.87
2022-10-18T02:24:22.046Z,5.47
2022-10-18T02:26:49.553Z,5.13
2022-10-18T02:29:16.858Z,6.80
2022-10-18T02:31:45.446Z,6.63
2022-10-18T02:34:12.669Z,13.10
2022-10-18T02:36:52.076Z,6.13
2022-10-18T02:39:24.236Z,9.57
2022-10-18T02:41:51.751Z,8.87
2022-10-18T02:44:18.976Z,3.83
2022-10-18T02:46:46.966Z,5.77
2022-10-18T02:49:14.200Z,8.30
2022-10-18T02:51:41.646Z,12.47
2022-10-18T02:54:09.018Z,8.45
2022-10-18T02:56:36.349Z,7.97
2022-10-18T02:59:05.661Z,8.23
2022-10-18T03:01:33.297Z,8.33
2022-10-18T03:04:00.724Z,3.33
2022-10-18T03:06:28.028Z,3.88
2022-10-18T03:08:55.258Z,4.38
2022-10-18T03:11:22.832Z,3.30
2022-10-18T03:13:52.929Z,7.07
2022-10-18T03:16:20.384Z,6.37
2022-10-18T03:18:47.624Z,13.77
2022-10-18T03:21:14.864Z,3.80
2022-10-18T03:23:42.512Z,8.98
2022-10-18T03:26:10.219Z,7.17
2022-10-18T03:28:37.564Z,78.20
2022-10-18T03:31:05.460Z,130.33
2022-10-18T03:33:33.849Z,107.82
2022-10-18T03:36:01.265Z,20.63
2022-10-18T03:38:28.694Z,17.05
2022-10-18T03:40:55.906Z,10.43
2022-10-18T03:43:23.882Z,12.40
2022-10-18T03:45:51.170Z,55.35
2022-10-18T03:48:18.366Z,23.13
2022-10-18T03:50:45.757Z,12.73
2022-10-18T03:53:13.253Z,7.50
2022-10-18T03:55:40.500Z,5.07
2022-10-18T03:58:07.829Z,8.73
2022-10-18T04:00:35.098Z,8.32
2022-10-18T04:03:02.571Z,12.45
2022-10-18T04:05:31.326Z,8.27
2022-10-18T04:07:58.726Z,15.75
2022-10-18T04:10:26.055Z,15.32
2022-10-18T04:12:53.560Z,24.30
2022-10-18T04:15:21.482Z,22.27
2022-10-18T04:17:48.737Z,19.77
2022-10-18T04:20:16.093Z,17.48
2022-10-18T04:22:43.389Z,18.58
2022-10-18T04:25:10.728Z,8.00
2022-10-18T04:27:38.231Z,4.18
2022-10-18T04:30:06.201Z,6.78
2022-10-18T04:32:35.054Z,3.90
2022-10-18T04:35:06.077Z,5.70
2022-10-18T04:37:34.130Z,4.57
2022-10-18T04:40:01.947Z,5.05
2022-10-18T04:42:29.320Z,5.63
2022-10-18T04:44:56.688Z,3.85
2022-10-18T04:47:23.966Z,3.42
2022-10-18T04:49:51.217Z,4.25
2022-10-18T04:52:18.498Z,3.10
2022-10-18T04:54:45.741Z,4.72
2022-10-18T04:57:12.999Z,4.35
2022-10-18T04:59:40.523Z,5.25
2022-10-18T05:02:07.752Z,4.97
2022-10-18T05:04:35.023Z,6.25
2022-10-18T05:07:03.080Z,7.18
2022-10-18T05:09:30.484Z,7.32
2022-10-18T05:11:57.780Z,3.53
2022-10-18T05:14:25.024Z,5.18
2022-10-18T05:16:52.323Z,3.58
2022-10-18T05:19:19.581Z,5.88
2022-10-18T05:21:46.821Z,3.78
2022-10-18T05:24:14.089Z,4.65
2022-10-18T05:26:41.405Z,6.00
2022-10-18T05:29:08.782Z,7.75
2022-10-18T05:31:36.371Z,6.90
2022-10-18T05:34:03.968Z,4.95
2022-10-18T05:36:31.918Z,7.28
2022-10-18T05:39:02.413Z,4.15
2022-10-18T05:41:31.562Z,6.65
2022-10-18T05:43:59.100Z,3.35
2022-10-18T05:46:26.399Z,4.97
2022-10-18T05:48:54.113Z,7.43
2022-10-18T05:51:21.510Z,6.70
2022-10-18T05:53:48.910Z,4.88
2022-10-18T05:56:16.280Z,4.10
2022-10-18T05:58:43.697Z,6.68
2022-10-18T06:01:11.311Z,10.27
2022-10-18T06:03:38.704Z,10.75
2022-10-18T06:06:10.886Z,6.78
2022-10-18T06:08:38.943Z,7.95
2022-10-18T06:11:09.500Z,6.63
2022-10-18T06:13:40.829Z,3.67
2022-10-18T06:16:08.467Z,7.97
2022-10-18T06:18:35.667Z,9.18
2022-10-18T06:21:02.893Z,4.90
2022-10-18T06:23:31.382Z,5.13
2022-10-18T06:26:02.733Z,5.80
2022-10-18T06:28:30.357Z,6.75
2022-10-18T06:30:58.445Z,4.68
2022-10-18T06:33:26.036Z,6.30
2022-10-18T06:36:00.689Z,12.18
2022-10-18T06:38:28.606Z,4.82
2022-10-18T06:40:56.289Z,5.63
2022-10-18T06:43:23.949Z,6.88
2022-10-18T06:45:51.526Z,5.32
2022-10-18T06:50:53.713Z,6.25
2022-10-18T06:53:21.244Z,4.20
2022-10-18T06:55:48.494Z,4.80
2022-10-18T06:58:15.821Z,7.63
2022-10-18T07:00:43.142Z,7.55
2022-10-18T07:03:10.357Z,3.95
2022-10-18T07:05:38.019Z,6.13
2022-10-18T07:08:05.421Z,4.20
2022-10-18T07:10:32.686Z,5.35
2022-10-18T07:13:20.007Z,4.45
2022-10-18T07:15:47.257Z,4.82
2022-10-18T07:18:14.462Z,4.50
2022-10-18T07:20:41.928Z,4.22
2022-10-18T07:23:11.625Z,8.70
2022-10-18T07:25:38.867Z,7.28
2022-10-18T07:28:06.193Z,4.10
2022-10-18T07:30:33.394Z,4.57
2022-10-18T07:33:00.684Z,7.18
2022-10-18T07:35:27.928Z,5.40
2022-10-18T07:37:55.301Z,24.23
2022-10-18T07:40:22.674Z,9.40
2022-10-18T07:42:49.996Z,8.98
2022-10-18T07:45:17.181Z,4.70
2022-10-18T07:47:44.401Z,7.85
2022-10-18T07:50:11.888Z,3.88
2022-10-18T07:52:39.308Z,3.60
2022-10-18T07:55:06.673Z,5.55
2022-10-18T07:57:34.275Z,6.20
2022-10-18T08:00:02.112Z,7.25
2022-10-18T08:02:29.387Z,6.93
2022-10-18T08:04:56.602Z,5.97
2022-10-18T08:07:23.861Z,7.68
2022-10-18T08:09:51.114Z,5.43
2022-10-18T08:12:18.435Z,4.55
2022-10-18T08:14:47.410Z,4.43
2022-10-18T08:17:14.649Z,4.90
2022-10-18T08:19:52.741Z,4.03
2022-10-18T08:22:29.481Z,5.35
2022-10-18T08:24:56.939Z,3.75
2022-10-18T08:27:26.737Z,3.35
2022-10-18T08:29:54.176Z,6.15
2022-10-18T08:32:21.446Z,4.65
2022-10-18T08:34:48.766Z,4.63
2022-10-18T08:37:16.276Z,4.20
2022-10-18T08:39:43.470Z,6.43
2022-10-18T08:42:30.071Z,8.48
2022-10-18T08:45:02.025Z,3.80
2022-10-18T08:47:42.178Z,6.15
2022-10-18T08:50:20.616Z,4.88
2022-10-18T08:53:05.989Z,3.53
2022-10-18T08:55:41.726Z,6.28
2022-10-18T08:58:18.048Z,5.03
2022-10-18T09:00:50.655Z,5.20
2022-10-18T09:03:27.291Z,5.10
2022-10-18T09:06:06.281Z,4.32
2022-10-18T09:09:12.274Z,4.07
2022-10-18T09:11:42.269Z,6.32
2022-10-18T09:14:22.603Z,10.57
2022-10-18T09:16:55.961Z,7.20
2022-10-18T09:19:38.602Z,5.32
2022-10-18T09:22:13.515Z,4.82
2022-10-18T09:24:40.793Z,6.60
2022-10-18T09:27:31.721Z,5.43
2022-10-18T09:30:16.320Z,5.82
2022-10-18T09:32:51.865Z,5.63
2022-10-18T09:35:22.112Z,4.57
2022-10-18T09:37:49.964Z,5.55
2022-10-18T09:40:19.074Z,4.63
2022-10-18T09:43:01.761Z,4.28
2022-10-18T09:45:33.228Z,5.90
2022-10-18T09:48:04.243Z,3.38
2022-10-18T09:50:40.389Z,7.07
2022-10-18T09:53:18.739Z,7.50
2022-10-18T09:55:56.178Z,5.43
2022-10-18T09:58:24.276Z,8.52
2022-10-18T10:00:53.807Z,7.43
2022-10-18T10:03:21.052Z,5.03
2022-10-18T10:05:50.795Z,4.50
2022-10-18T10:08:18.003Z,4.20
2022-10-18T10:10:48.146Z,6.13
2022-10-18T10:13:23.044Z,4.65
2022-10-18T10:15:53.520Z,6.95
2022-10-18T10:18:40.050Z,3.80
2022-10-18T10:21:08.995Z,3.47
2022-10-18T10:23:47.601Z,3.75
2022-10-18T10:26:23.962Z,2.63
2022-10-18T10:28:51.996Z,2.15
2022-10-18T10:31:19.403Z,5.82
2022-10-18T10:33:47.692Z,2.20
2022-10-18T10:36:20.114Z,5.13
2022-10-18T10:39:02.920Z,3.45
2022-10-18T10:43:57.720Z,3.50
2022-10-18T10:46:34.574Z,2.92
2022-10-18T10:49:35.103Z,3.30
2022-10-18T10:52:08.139Z,3.42
2022-10-18T10:54:38.951Z,4.68
2022-10-18T10:57:12.794Z,3.25
2022-10-18T10:59:45.555Z,3.45
2022-10-18T11:02:18.708Z,4.00
2022-10-18T11:04:47.394Z,1.85
2022-10-18T11:07:34.312Z,2.72
2022-10-18T11:10:10.751Z,1.83
2022-10-18T11:12:45.513Z,2.78
2022-10-18T11:15:12.714Z,2.00
2022-10-18T11:17:44.905Z,4.13
2022-10-18T11:20:34.130Z,1.95
2022-10-18T11:23:21.865Z,4.63
2022-10-18T11:25:52.486Z,2.85
2022-10-18T11:28:26.889Z,6.18
2022-10-18T11:31:00.444Z,5.95
2022-10-18T11:33:56.267Z,3.70
2022-10-18T11:36:21.479Z,6.53
2022-10-18T11:38:54.974Z,12.63
2022-10-18T11:41:41.716Z,5.07
2022-10-18T11:44:20.133Z,7.40
2022-10-18T11:46:56.508Z,13.77
2022-10-18T11:49:29.754Z,6.05
2022-10-18T11:52:09.205Z,2.63
2022-10-18T11:54:36.839Z,2.83
2022-10-18T11:57:10.251Z,4.03
2022-10-18T11:59:57.787Z,4.18
2022-10-18T12:02:25.313Z,4.20
2022-10-18T12:05:22.021Z,4.22
2022-10-18T12:07:46.943Z,7.43
2022-10-18T12:10:26.338Z,3.60
2022-10-18T12:13:08.107Z,3.78
2022-10-18T12:15:38.211Z,8.32
2022-10-18T12:18:12.390Z,4.53
2022-10-18T12:20:42.689Z,5.00
2022-10-18T12:23:15.379Z,4.35
2022-10-18T12:25:44.605Z,7.10
2022-10-18T12:28:19.069Z,10.55
2022-10-18T12:31:05.533Z,13.65
2022-10-18T12:33:37.932Z,4.43
2022-10-18T12:36:23.723Z,6.50
2022-10-18T12:38:55.460Z,5.45
2022-10-18T12:41:27.117Z,7.07
2022-10-18T12:44:08.314Z,6.28
2022-10-18T12:46:46.883Z,5.57
2022-10-18T12:49:14.860Z,3.78
2022-10-18T12:51:55.915Z,3.13
2022-10-18T12:54:26.022Z,2.42
2022-10-18T12:56:53.394Z,5.00
2022-10-18T12:59:23.420Z,4.18
2022-10-18T13:01:53.832Z,5.20
2022-10-18T13:04:33.992Z,4.40
2022-10-18T13:07:19.740Z,4.13
2022-10-18T13:10:19.744Z,3.95
2022-10-18T13:12:57.338Z,7.25
2022-10-18T13:15:34.395Z,8.75
2022-10-18T13:18:07.174Z,11.55
2022-10-18T13:21:09.706Z,2.85
2022-10-18T13:23:38.326Z,2.67
2022-10-18T13:26:14.314Z,5.55
2022-10-18T13:28:41.700Z,2.38
2022-10-18T13:31:41.374Z,3.75
2022-10-18T13:34:40.913Z,9.15
2022-10-18T13:37:11.235Z,2.67
2022-10-18T13:39:39.376Z,4.10
2022-10-18T13:42:15.715Z,3.25
2022-10-18T13:44:46.574Z,3.50
2022-10-18T13:47:15.820Z,3.92
2022-10-18T13:49:59.228Z,4.15
2022-10-18T13:52:45.286Z,4.55
2022-10-18T13:55:31.242Z,3.60
2022-10-18T13:58:07.641Z,4.38
2022-10-18T14:00:49.115Z,5.70
2022-10-18T14:03:56.318Z,3.53
2022-10-18T14:06:24.467Z,4.60
2022-10-18T14:08:57.653Z,6.60
2022-10-18T14:11:34.295Z,5.35
2022-10-18T14:14:14.746Z,6.75
2022-10-18T14:16:56.979Z,4.63
2022-10-18T14:19:30.473Z,3.45
2022-10-18T14:22:00.165Z,2.47
2022-10-18T14:24:28.403Z,4.75
2022-10-18T14:27:13.007Z,4.97
2022-10-18T14:29:41.009Z,2.78
2022-10-18T14:32:11.781Z,2.97
2022-10-18T14:34:41.333Z,3.65
2022-10-18T14:37:15.091Z,1.88
2022-10-18T14:39:42.376Z,4.20
2022-10-18T14:42:19.699Z,2.20
2022-10-18T14:44:53.025Z,4.68
2022-10-18T14:47:24.598Z,3.70
2022-10-18T14:49:54.544Z,3.55
2022-10-18T14:52:26.351Z,3.95
2022-10-18T14:54:58.695Z,3.65
2022-10-18T14:57:30.613Z,5.07
2022-10-18T15:00:03.228Z,2.03
2022-10-18T15:02:33.043Z,3.47
2022-10-18T15:05:05.869Z,5.70
2022-10-18T15:07:33.518Z,2.65
2022-10-18T15:10:03.992Z,4.75
2022-10-18T15:12:36.876Z,4.90
2022-10-18T15:15:14.977Z,3.75
2022-10-18T15:17:42.288Z,2.95
2022-10-18T15:20:20.755Z,6.13
2022-10-18T15:22:48.281Z,2.60
2022-10-18T15:25:29.306Z,2.47
2022-10-18T15:28:00.111Z,4.47
2022-10-18T15:30:29.001Z,6.78
2022-10-18T15:32:57.650Z,3.20
2022-10-18T15:35:27.174Z,6.75
2022-10-18T15:37:59.074Z,2.83
2022-10-18T15:40:29.712Z,4.90
2022-10-18T15:42:58.257Z,5.55
2022-10-18T15:45:25.550Z,5.40
2022-10-18T15:48:05.151Z,3.17
2022-10-18T15:50:38.651Z,4.65
2022-10-18T15:53:21.338Z,2.65
2022-10-18T15:55:48.656Z,3.72
2022-10-18T15:58:26.959Z,4.03
2022-10-18T16:00:56.939Z,8.88
2022-10-18T16:03:24.621Z,3.53
2022-10-18T16:05:59.209Z,6.70
2022-10-18T16:08:37.197Z,3.45
2022-10-18T16:11:04.878Z,3.72
2022-10-18T16:13:32.351Z,5.38
2022-10-18T16:16:00.251Z,4.35
2022-10-18T16:18:27.911Z,4.10
2022-10-18T16:20:56.121Z,7.95
2022-10-18T16:23:25.210Z,7.53
2022-10-18T16:25:52.924Z,7.90
2022-10-18T16:28:21.607Z,6.10
2022-10-18T16:31:01.425Z,4.43
2022-10-18T16:33:28.699Z,3.58
2022-10-18T16:35:56.105Z,4.90
2022-10-18T16:38:29.911Z,6.72
2022-10-18T16:41:00.553Z,5.68
2022-10-18T16:43:31.729Z,7.47
2022-10-18T16:45:58.989Z,6.20
2022-10-18T16:48:26.307Z,6.97
2022-10-18T16:50:54.643Z,6.00
2022-10-18T16:53:25.259Z,7.03
2022-10-18T16:55:55.189Z,8.35
2022-10-18T17:00:51.322Z,6.32
2022-10-18T17:03:18.690Z,4.95
2022-10-18T17:05:46.371Z,5.93
2022-10-18T17:08:18.831Z,5.25
2022-10-18T17:10:46.700Z,8.05
2022-10-18T17:13:13.944Z,4.47
2022-10-18T17:15:42.664Z,4.80
2022-10-18T17:18:13.896Z,6.88
2022-10-18T17:20:41.435Z,8.65
2022-10-18T17:23:09.395Z,8.52
2022-10-18T17:25:51.475Z,9.95
2022-10-18T17:28:29.054Z,6.30
2022-10-18T17:30:56.424Z,8.25
2022-10-18T17:33:23.672Z,7.78
2022-10-18T17:35:51.279Z,6.35
2022-10-18T17:38:18.611Z,7.05
2022-10-18T17:40:46.266Z,8.48
2022-10-18T17:43:13.994Z,11.20
2022-10-18T17:45:51.429Z,5.90
2022-10-18T17:48:18.677Z,12.68
2022-10-18T17:50:45.921Z,7.72
2022-10-18T17:53:13.234Z,9.48
2022-10-18T17:55:41.110Z,10.07
2022-10-18T17:58:13.560Z,7.50
2022-10-18T18:00:40.815Z,7.35
2022-10-18T18:03:08.080Z,8.10
2022-10-18T18:05:35.373Z,8.45
2022-10-18T18:08:04.104Z,9.52
2022-10-18T18:10:32.939Z,9.32
2022-10-18T18:13:00.204Z,11.77
2022-10-18T18:15:27.987Z,7.13
2022-10-18T18:17:57.381Z,7.63
2022-10-18T18:20:25.255Z,10.77
2022-10-18T18:22:52.801Z,6.75
2022-10-18T18:25:20.310Z,5.65
2022-10-18T18:27:47.677Z,5.68
2022-10-18T18:30:18.049Z,6.88
2022-10-18T18:32:45.481Z,8.50
2022-10-18T18:35:12.776Z,7.38
2022-10-18T18:37:40.129Z,6.78
2022-10-18T18:40:07.699Z,8.10
2022-10-18T18:42:35.204Z,8.45
2022-10-18T18:45:02.689Z,10.63
2022-10-18T18:47:30.019Z,10.27
2022-10-18T18:49:57.459Z,14.63
2022-10-18T18:52:25.442Z,11.20
2022-10-18T18:54:52.691Z,10.00
2022-10-18T18:57:19.951Z,12.73
2022-10-18T18:59:47.262Z,15.23
2022-10-18T19:02:14.593Z,16.55
2022-10-18T19:04:41.871Z,21.02
2022-10-18T19:07:09.089Z,25.15
2022-10-18T19:09:38.640Z,20.05
2022-10-18T19:12:06.233Z,20.13
2022-10-18T19:14:33.441Z,19.20
2022-10-18T19:17:01.738Z,19.40
2022-10-18T19:19:30.177Z,14.20
2022-10-18T19:21:58.757Z,16.90
2022-10-18T19:24:27.310Z,16.25
2022-10-18T19:26:54.543Z,12.73
2022-10-18T19:29:23.100Z,13.88
2022-10-18T19:31:51.581Z,11.80
2022-10-18T19:34:19.494Z,12.15
2022-10-18T19:36:47.600Z,13.10
2022-10-18T19:39:22.154Z,15.63
2022-10-18T19:41:50.735Z,17.23
2022-10-18T19:44:21.453Z,14.98
2022-10-18T19:46:49.152Z,15.65
2022-10-18T19:49:16.759Z,18.48
2022-10-18T19:51:44.437Z,14.38
2022-10-18T19:54:15.639Z,12.90
2022-10-18T19:56:43.309Z,13.98
2022-10-18T19:59:10.973Z,13.88
2022-10-18T20:01:38.722Z,15.50
2022-10-18T20:04:07.328Z,11.50
2022-10-18T20:06:34.972Z,13.32
2022-10-18T20:09:02.528Z,12.85
2022-10-18T20:11:30.529Z,11.27
2022-10-18T20:13:57.936Z,14.98
2022-10-18T20:16:28.333Z,12.25
2022-10-18T20:18:59.915Z,18.70
2022-10-18T20:21:27.649Z,16.60
2022-10-18T20:23:55.184Z,11.70
2022-10-18T20:26:22.787Z,12.90
2022-10-18T20:28:56.462Z,13.00
2022-10-18T20:31:31.237Z,14.10
2022-10-18T20:33:59.631Z,13.90
2022-10-18T20:36:27.242Z,14.25
2022-10-18T20:38:55.127Z,13.40
2022-10-18T20:41:24.263Z,14.60
2022-10-18T20:43:55.515Z,13.82
2022-10-18T20:46:23.278Z,13.30
2022-10-18T20:48:51.544Z,14.48
2022-10-18T20:51:19.164Z,12.07
2022-10-18T20:53:46.523Z,12.02
2022-10-18T20:56:15.218Z,13.68
2022-10-18T20:58:44.101Z,11.70
2022-10-18T21:01:21.739Z,12.82
2022-10-18T21:03:49.886Z,15.27
2022-10-18T21:06:19.067Z,16.97
2022-10-18T21:08:46.797Z,18.08
2022-10-18T21:11:14.870Z,15.25
2022-10-18T21:13:42.083Z,12.88
2022-10-18T21:16:09.414Z,11.30
2022-10-18T21:18:40.328Z,17.27
2022-10-18T21:21:08.471Z,33.67
2022-10-18T21:23:36.009Z,21.83
2022-10-18T21:26:03.220Z,21.47
2022-10-18T21:28:30.561Z,29.90
2022-10-18T21:31:08.311Z,36.77
2022-10-18T21:33:35.851Z,46.40
2022-10-18T21:36:03.132Z,27.93
2022-10-18T21:38:30.414Z,16.53
2022-10-18T21:40:57.691Z,24.50
2022-10-18T21:43:24.967Z,19.27
2022-10-18T21:46:01.348Z,22.63
2022-10-18T21:48:28.991Z,19.87
2022-10-18T21:50:56.252Z,14.17
2022-10-18T21:53:23.518Z,13.37
2022-10-18T21:55:50.727Z,13.70
2022-10-18T21:58:17.979Z,13.17
2022-10-18T22:00:45.283Z,12.27
2022-10-18T22:03:13.555Z,11.70
2022-10-18T22:05:41.077Z,15.40
2022-10-18T22:08:08.636Z,10.70
2022-10-18T22:10:35.917Z,9.37
2022-10-18T22:13:03.178Z,20.10
2022-10-18T22:15:30.514Z,16.43
2022-10-18T22:17:57.941Z,12.33
2022-10-18T22:20:25.223Z,10.10
2022-10-18T22:22:54.128Z,10.63
2022-10-18T22:25:21.318Z,18.33
2022-10-18T22:27:48.750Z,23.00
2022-10-18T22:30:16.049Z,19.73
2022-10-18T22:32:43.436Z,15.43
2022-10-18T22:35:10.793Z,29.87
2022-10-18T22:37:38.145Z,30.13
2022-10-18T22:40:05.637Z,16.87
2022-10-18T22:45:00.267Z,21.10
2022-10-18T22:47:27.722Z,26.90
2022-10-18T22:49:54.906Z,26.07
2022-10-18T22:52:22.129Z,13.57
2022-10-18T22:54:49.358Z,16.17
2022-10-18T22:57:16.533Z,15.07
2022-10-18T22:59:43.855Z,18.43
2022-10-18T23:02:11.253Z,16.17
2022-10-18T23:04:38.497Z,10.77
2022-10-18T23:07:05.755Z,15.07
2022-10-18T23:09:33.101Z,12.87
2022-10-18T23:12:00.386Z,15.17
2022-10-18T23:14:27.623Z,13.50
2022-10-18T23:16:55.501Z,22.70
2022-10-18T23:19:22.784Z,13.33
2022-10-18T23:21:50.398Z,16.47
2022-10-18T23:24:18.078Z,15.30
2022-10-18T23:26:45.397Z,10.23
2022-10-18T23:29:12.726Z,6.93
2022-10-18T23:31:40.191Z,6.93
2022-10-18T23:34:07.577Z,7.60
2022-10-18T23:36:35.206Z,15.27
2022-10-18T23:39:02.816Z,16.80
2022-10-18T23:41:30.118Z,13.83
2022-10-18T23:43:57.362Z,7.57
2022-10-18T23:46:25.156Z,20.30
2022-10-18T23:48:52.603Z,14.73
2022-10-18T23:51:19.927Z,32.90
2022-10-18T23:53:47.256Z,20.73
2022-10-18T23:56:15.703Z,14.63
2022-10-18T23:58:43.415Z,10.07
